createdAt,value
2022-11-08T05:32:54.179Z,2200.00
2022-11-08T05:35:22.989Z,2266.67
2022-11-08T05:37:50.663Z,2266.67
2022-11-08T05:40:18.501Z,2266.67
2022-11-08T05:42:46.231Z,2266.67
2022-11-08T05:45:13.913Z,2266.67
2022-11-08T05:47:46.630Z,1472.70
2022-11-08T05:50:19.133Z,2266.67
2022-11-08T05:52:47.152Z,2266.67
2022-11-08T05:55:14.815Z,2266.67
2022-11-08T05:57:43.569Z,2266.67
2022-11-08T06:00:12.408Z,2266.67
2022-11-08T06:02:40.269Z,2266.67
2022-11-08T06:05:10.647Z,2266.67
2022-11-08T06:07:38.533Z,2266.67
2022-11-08T06:10:07.067Z,2266.67
2022-11-08T06:12:34.940Z,2266.67
2022-11-08T06:15:02.639Z,2266.67
2022-11-08T06:17:30.532Z,2266.67
2022-11-08T06:19:58.487Z,2266.67
2022-11-08T06:22:27.519Z,2266.67
2022-11-08T06:24:55.352Z,2266.67
2022-11-08T06:27:22.987Z,2266.67
2022-11-08T06:29:50.651Z,2266.67
2022-11-08T06:32:18.293Z,2266.67
2022-11-08T06:34:47.101Z,2266.67
2022-11-08T06:37:14.785Z,2266.67
2022-11-08T06:39:44.747Z,2266.67
2022-11-08T06:42:12.395Z,2266.67
2022-11-08T06:44:40.054Z,2266.67
2022-11-08T06:47:07.712Z,2266.67
2022-11-08T06:49:37.110Z,2266.67
2022-11-08T06:52:05.320Z,2266.67
2022-11-08T06:54:33.005Z,2266.67
2022-11-08T06:57:02.253Z,2266.67
2022-11-08T06:59:30.123Z,2266.67
2022-11-08T07:01:57.904Z,2266.67
2022-11-08T07:04:25.701Z,2266.67
2022-11-08T07:06:53.363Z,2266.67
2022-11-08T07:09:20.992Z,2266.67
2022-11-08T07:11:48.642Z,2266.67
2022-11-08T07:14:17.613Z,2266.67
2022-11-08T07:16:45.263Z,2266.67
2022-11-08T07:19:12.907Z,2266.67
2022-11-08T07:21:40.662Z,2266.67
2022-11-08T07:24:08.384Z,2266.67
2022-11-08T07:26:36.058Z,2266.67
2022-11-08T07:29:03.734Z,2266.67
2022-11-08T07:31:32.722Z,2266.67
2022-11-08T07:34:00.410Z,2266.67
2022-11-08T07:36:28.078Z,2266.67
2022-11-08T07:38:55.696Z,2266.67
2022-11-08T07:41:23.307Z,2266.67
2022-11-08T07:43:50.977Z,2266.67
2022-11-08T07:46:18.967Z,2266.67
2022-11-08T07:48:48.115Z,2266.67
2022-11-08T07:51:15.736Z,2266.67
2022-11-08T07:53:43.813Z,2266.67
2022-11-08T07:56:11.782Z,2266.67
2022-11-08T07:58:39.478Z,2266.67
2022-11-08T08:01:08.044Z,2266.67
2022-11-08T08:03:36.317Z,2266.67
2022-11-08T08:06:05.472Z,2266.67
2022-11-08T08:08:33.150Z,2266.67
2022-11-08T08:11:01.494Z,2266.67
2022-11-08T08:13:29.856Z,2266.67
2022-11-08T08:15:59.472Z,2266.67
2022-11-08T08:18:27.322Z,2266.67
2022-11-08T08:20:54.980Z,2266.67
2022-11-08T08:23:23.968Z,2266.67
2022-11-08T08:25:52.825Z,2266.67
2022-11-08T08:28:20.581Z,2266.67
2022-11-08T08:30:48.394Z,2266.67
2022-11-08T08:33:33.193Z,2266.67
2022-11-08T08:36:01.956Z,2266.67
2022-11-08T08:38:31.764Z,2266.67
2022-11-08T08:41:00.094Z,2266.67
2022-11-08T08:43:28.526Z,2266.67
2022-11-08T08:45:56.394Z,2266.67
2022-11-08T08:48:24.007Z,2266.67
2022-11-08T08:50:51.668Z,2266.67
2022-11-08T08:53:19.689Z,2266.67
2022-11-08T08:55:52.306Z,2266.67
2022-11-08T08:58:20.371Z,2266.67
2022-11-08T09:03:36.508Z,2266.67
2022-11-08T09:06:04.689Z,2266.67
2022-11-08T09:08:32.349Z,2266.67
2022-11-08T09:11:02.121Z,2266.67
2022-11-08T09:13:31.795Z,2266.67
2022-11-08T09:16:01.392Z,2266.67
2022-11-08T09:18:29.117Z,2266.67
2022-11-08T09:20:57.948Z,2266.67
2022-11-08T09:23:25.765Z,2266.67
2022-11-08T09:25:57.667Z,2266.67
2022-11-08T09:28:30.969Z,2266.67
2022-11-08T09:31:01.408Z,2266.67
2022-11-08T09:33:29.092Z,2266.67
2022-11-08T09:35:56.761Z,2266.67
2022-11-08T09:38:24.397Z,2266.67
2022-11-08T09:40:58.188Z,2266.67
2022-11-08T09:43:38.299Z,2266.67
2022-11-08T09:46:08.820Z,2266.67
2022-11-08T09:48:38.535Z,2266.67
2022-11-08T09:51:09.118Z,2266.67
2022-11-08T09:53:46.208Z,2266.67
2022-11-08T09:56:17.071Z,2266.67
2022-11-08T09:58:49.652Z,2266.67
2022-11-08T10:01:17.636Z,2266.67
2022-11-08T10:03:50.456Z,2266.67
2022-11-08T10:06:46.002Z,2266.67
2022-11-08T10:09:23.821Z,2266.67
2022-11-08T10:12:08.388Z,2266.67
2022-11-08T10:14:54.381Z,2266.67
2022-11-08T10:17:35.631Z,2266.67
2022-11-08T10:20:11.702Z,2266.67
2022-11-08T10:22:47.102Z,2266.67
2022-11-08T10:25:20.860Z,2266.67
2022-11-08T10:27:48.526Z,2266.67
2022-11-08T10:30:21.468Z,2266.67
2022-11-08T10:32:52.131Z,2266.67
2022-11-08T10:35:23.352Z,2266.67
2022-11-08T10:37:52.983Z,2266.67
2022-11-08T10:40:27.823Z,2266.67
2022-11-08T10:42:59.256Z,2266.67
2022-11-08T10:45:28.264Z,2266.67
2022-11-08T10:47:56.171Z,2266.67
2022-11-08T10:50:33.202Z,2266.67
2022-11-08T10:53:02.540Z,2266.67
2022-11-08T10:55:33.473Z,2266.67
2022-11-08T10:58:01.520Z,1283.10
2022-11-08T11:00:32.836Z,1101.37
2022-11-08T11:03:02.177Z,876.30
2022-11-08T11:05:33.664Z,872.83
2022-11-08T11:08:14.269Z,851.70
2022-11-08T11:10:43.931Z,857.97
2022-11-08T11:13:13.480Z,846.83
2022-11-08T11:15:47.439Z,852.87
2022-11-08T11:18:36.595Z,883.30
2022-11-08T11:21:08.563Z,853.93
2022-11-08T11:23:38.762Z,853.13
2022-11-08T11:26:07.252Z,2266.67
2022-11-08T11:28:36.677Z,2266.67
2022-11-08T11:31:16.826Z,2266.67
2022-11-08T11:33:45.479Z,840.67
2022-11-08T11:36:15.357Z,833.77
2022-11-08T11:38:47.640Z,863.60
2022-11-08T11:41:18.222Z,2266.67
2022-11-08T11:43:48.946Z,2266.67
2022-11-08T11:46:22.549Z,831.17
2022-11-08T11:48:54.777Z,865.87
2022-11-08T11:51:23.522Z,846.13
2022-11-08T11:53:51.205Z,843.03
2022-11-08T11:56:34.546Z,846.60
2022-11-08T11:59:22.634Z,220.53
2022-11-08T12:02:00.393Z,839.83
2022-11-08T12:04:37.529Z,332.60
2022-11-08T12:07:10.142Z,898.43
2022-11-08T12:09:46.764Z,833.60
2022-11-08T12:12:26.872Z,828.20
2022-11-08T12:14:58.403Z,838.37
2022-11-08T12:17:49.284Z,836.80
2022-11-08T12:20:34.553Z,830.70
2022-11-08T12:23:11.386Z,833.80
2022-11-08T12:25:43.512Z,889.37
2022-11-08T12:28:29.092Z,884.30
2022-11-08T12:31:00.291Z,843.80
2022-11-08T12:33:37.267Z,847.37
2022-11-08T12:36:14.188Z,868.13
2022-11-08T12:39:02.337Z,183.97
2022-11-08T12:41:34.631Z,886.57
2022-11-08T12:44:16.762Z,840.37
2022-11-08T12:46:50.763Z,834.30
2022-11-08T12:49:30.643Z,255.23
2022-11-08T12:52:12.449Z,788.40
2022-11-08T12:54:42.325Z,334.93
2022-11-08T12:57:12.924Z,308.37
2022-11-08T12:59:43.610Z,233.83
2022-11-08T13:02:17.649Z,764.53
2022-11-08T13:04:52.832Z,245.90
2022-11-08T13:07:25.819Z,926.70
2022-11-08T13:09:57.854Z,889.83
2022-11-08T13:12:34.317Z,885.07
2022-11-08T13:15:02.880Z,920.47
2022-11-08T13:17:31.485Z,881.07
2022-11-08T13:20:05.763Z,882.50
2022-11-08T13:23:01.117Z,917.40
2022-11-08T13:25:36.737Z,909.43
2022-11-08T13:28:37.543Z,919.33
2022-11-08T13:31:14.313Z,909.33
2022-11-08T13:33:46.609Z,872.90
2022-11-08T13:36:23.629Z,876.20
2022-11-08T13:38:58.711Z,927.50
2022-11-08T13:41:26.863Z,880.50
2022-11-08T13:43:55.943Z,876.30
2022-11-08T13:46:46.738Z,891.93
2022-11-08T13:49:22.591Z,871.37
2022-11-08T13:51:52.525Z,911.63
2022-11-08T13:54:51.764Z,875.07
2022-11-08T13:57:59.344Z,862.67
2022-11-08T14:00:43.195Z,881.10
2022-11-08T14:03:44.148Z,871.63
2022-11-08T14:06:17.600Z,872.60
2022-11-08T14:08:50.115Z,863.57
2022-11-08T14:11:37.950Z,864.63
2022-11-08T14:14:27.916Z,867.87
2022-11-08T14:17:08.325Z,860.67
2022-11-08T14:19:38.100Z,844.07
2022-11-08T14:22:13.939Z,876.83
2022-11-08T14:24:41.758Z,857.10
2022-11-08T14:27:12.896Z,860.93
2022-11-08T14:29:42.145Z,2266.67
2022-11-08T14:32:17.963Z,2266.67
2022-11-08T14:34:45.768Z,2266.67
2022-11-08T14:37:21.449Z,875.47
2022-11-08T14:39:49.305Z,885.47
2022-11-08T14:42:22.043Z,872.30
2022-11-08T14:44:53.657Z,925.53
2022-11-08T14:47:24.846Z,887.77
2022-11-08T14:49:52.496Z,2266.67
2022-11-08T14:52:24.441Z,2266.67
2022-11-08T14:55:01.229Z,2266.67
2022-11-08T14:57:30.906Z,2266.67
2022-11-08T15:00:01.892Z,2266.67
2022-11-08T15:02:29.668Z,2266.67
2022-11-08T15:04:57.324Z,2266.67
2022-11-08T15:07:25.513Z,2266.67
2022-11-08T15:09:53.712Z,2266.67
2022-11-08T15:12:23.459Z,2266.67
2022-11-08T15:14:54.620Z,2266.67
2022-11-08T15:17:38.597Z,2266.67
2022-11-08T15:20:19.672Z,2266.67
2022-11-08T15:22:47.945Z,2266.67
2022-11-08T15:25:25.725Z,2266.67
2022-11-08T15:27:55.488Z,2266.67
2022-11-08T15:30:24.597Z,2266.67
2022-11-08T15:32:53.597Z,2266.67
2022-11-08T15:35:24.772Z,2266.67
2022-11-08T15:37:52.873Z,2266.67
2022-11-08T15:40:21.973Z,2266.67
2022-11-08T15:42:51.273Z,2266.67
2022-11-08T15:45:26.047Z,2266.67
2022-11-08T15:48:01.626Z,2266.67
2022-11-08T15:50:31.030Z,2266.67
2022-11-08T15:53:00.018Z,2266.67
2022-11-08T15:55:30.576Z,2266.67
2022-11-08T15:57:58.845Z,2266.67
2022-11-08T16:00:28.181Z,2266.67
2022-11-08T16:02:57.360Z,2266.67
2022-11-08T16:05:26.376Z,2266.67
2022-11-08T16:07:54.583Z,2266.67
2022-11-08T16:10:26.873Z,2266.67
2022-11-08T16:12:54.517Z,2266.67
2022-11-08T16:15:24.643Z,2266.67
2022-11-08T16:17:52.605Z,2266.67
2022-11-08T16:20:26.928Z,2266.67
2022-11-08T16:22:54.780Z,2266.67
2022-11-08T16:25:22.717Z,2266.67
2022-11-08T16:27:53.421Z,2266.67
2022-11-08T16:30:21.487Z,2266.67
2022-11-08T16:32:49.449Z,2266.67
2022-11-08T16:35:17.738Z,2266.67
2022-11-08T16:37:47.069Z,2266.67
2022-11-08T16:40:19.225Z,2266.67
2022-11-08T16:42:47.886Z,2266.67
2022-11-08T16:45:16.787Z,2266.67
2022-11-08T16:47:47.131Z,2266.67
2022-11-08T16:50:17.158Z,2266.67
2022-11-08T16:52:46.324Z,2266.67
2022-11-08T16:55:17.532Z,2266.67
2022-11-08T16:57:45.981Z,2266.67
2022-11-08T17:00:15.737Z,2266.67
2022-11-08T17:02:46.232Z,2266.67
2022-11-08T17:05:18.196Z,2266.67
2022-11-08T17:07:47.413Z,2266.67
2022-11-08T17:10:17.299Z,2266.67
2022-11-08T17:12:44.976Z,2266.67
2022-11-08T17:15:13.664Z,2266.67
2022-11-08T17:17:42.088Z,2266.67
2022-11-08T17:20:12.523Z,2266.67
2022-11-08T17:22:40.860Z,2266.67
2022-11-08T17:25:11.641Z,2266.67
2022-11-08T17:27:39.866Z,2266.67
2022-11-08T17:30:09.096Z,2266.67
2022-11-08T17:32:37.174Z,2266.67
2022-11-08T17:35:06.009Z,2266.67
2022-11-08T17:37:34.054Z,2266.67
2022-11-08T17:40:02.765Z,2266.67
2022-11-08T17:42:35.790Z,2266.67
2022-11-08T17:45:07.297Z,2266.67
2022-11-08T17:47:34.947Z,2266.67
2022-11-08T17:50:02.991Z,2266.67
2022-11-08T17:52:30.664Z,2266.67
2022-11-08T17:54:58.363Z,2266.67
2022-11-08T17:57:26.076Z,2266.67
2022-11-08T17:59:55.073Z,2266.67
2022-11-08T18:02:22.765Z,2266.67
2022-11-08T18:04:50.460Z,2266.67
2022-11-08T18:07:18.169Z,2266.67
2022-11-08T18:09:45.875Z,2266.67
2022-11-08T18:12:13.522Z,2266.67
2022-11-08T18:14:41.205Z,2266.67
2022-11-08T18:17:10.193Z,2266.67
2022-11-08T18:19:37.944Z,2266.67
2022-11-08T18:22:05.637Z,2266.67
2022-11-08T18:24:33.309Z,2266.67
2022-11-08T18:27:00.949Z,2266.67
2022-11-08T18:29:28.604Z,2266.67
2022-11-08T18:31:56.224Z,2266.67
2022-11-08T18:34:25.381Z,2266.67
2022-11-08T18:36:53.009Z,2266.67
2022-11-08T18:39:20.675Z,2266.67
2022-11-08T18:41:48.780Z,2266.67
2022-11-08T18:44:16.408Z,2266.67
2022-11-08T18:46:44.143Z,2266.67
2022-11-08T18:49:11.936Z,2266.67
2022-11-08T18:51:40.958Z,2266.67
2022-11-08T18:54:08.623Z,2266.67
2022-11-08T18:56:36.296Z,2266.67
2022-11-08T18:59:04.039Z,2266.67
2022-11-08T19:01:31.710Z,2266.67
2022-11-08T19:03:59.433Z,2266.67
2022-11-08T19:06:27.418Z,2266.67
2022-11-08T19:08:57.512Z,2266.67
2022-11-08T19:11:25.189Z,2266.67
2022-11-08T19:13:52.882Z,2266.67
2022-11-08T19:16:21.957Z,2266.67
2022-11-08T19:18:50.199Z,2266.67
2022-11-08T19:21:19.396Z,2266.67
2022-11-08T19:23:47.490Z,2266.67
2022-11-08T19:26:18.243Z,2266.67
2022-11-08T19:28:46.876Z,2266.67
2022-11-08T19:31:15.383Z,2266.67
2022-11-08T19:33:43.091Z,2266.67
2022-11-08T19:36:13.981Z,2266.67
2022-11-08T19:38:42.309Z,2266.67
2022-11-08T19:41:11.380Z,2266.67
2022-11-08T19:43:41.631Z,2266.67
2022-11-08T19:46:11.803Z,2266.67
2022-11-08T19:48:40.836Z,2266.67
2022-11-08T19:51:12.697Z,2266.67
2022-11-08T19:53:40.652Z,2266.67
2022-11-08T19:56:10.728Z,2266.67
2022-11-08T19:58:40.497Z,2266.67
2022-11-08T20:01:09.009Z,2266.67
2022-11-08T20:03:36.934Z,2266.67
2022-11-08T20:06:05.364Z,2266.67
2022-11-08T20:08:33.069Z,2266.67
2022-11-08T20:11:00.959Z,2216.70
2022-11-08T20:13:28.628Z,2266.67
2022-11-08T20:16:09.489Z,2266.67
2022-11-08T20:18:37.172Z,2266.67
2022-11-08T20:21:05.666Z,2266.67
2022-11-08T20:23:33.305Z,2266.67
2022-11-08T20:26:01.938Z,2266.67
2022-11-08T20:28:29.866Z,2266.67
2022-11-08T20:31:03.570Z,2266.67
2022-11-08T20:33:33.977Z,2266.67
2022-11-08T20:36:03.873Z,2266.67
2022-11-08T20:38:31.737Z,2266.67
2022-11-08T20:40:59.921Z,2266.67
2022-11-08T20:43:27.807Z,2266.67
2022-11-08T20:45:55.473Z,2266.67
2022-11-08T20:48:28.563Z,2266.67
2022-11-08T20:50:57.999Z,2266.67
2022-11-08T20:53:25.841Z,2266.67
2022-11-08T20:55:57.686Z,2266.67
2022-11-08T20:58:26.563Z,2266.67
2022-11-08T21:00:58.766Z,2266.67
2022-11-08T21:03:28.910Z,2266.67
2022-11-08T21:05:58.416Z,1676.20
2022-11-08T21:08:58.539Z,2266.67
2022-11-08T21:11:14.867Z,2266.67
2022-11-08T21:13:44.496Z,2266.67
2022-11-08T21:16:29.400Z,2266.67
2022-11-08T21:18:59.474Z,2266.67
2022-11-08T21:21:27.550Z,2266.67
2022-11-08T21:23:55.303Z,2266.67
2022-11-08T21:26:23.630Z,2266.67
2022-11-08T21:28:52.115Z,2266.67
2022-11-08T21:31:20.030Z,2266.67
2022-11-08T21:33:47.764Z,2266.67
2022-11-08T21:36:18.346Z,2266.67
2022-11-08T21:38:46.276Z,2266.67
2022-11-08T21:41:13.975Z,2266.67
2022-11-08T21:43:43.964Z,2266.67
2022-11-08T21:46:16.171Z,2266.67
2022-11-08T21:48:43.844Z,2266.67
2022-11-08T21:51:11.513Z,2266.67
2022-11-08T21:53:49.322Z,2266.67
2022-11-08T21:56:21.767Z,2266.67
2022-11-08T21:58:49.432Z,2266.67
2022-11-08T22:01:17.637Z,2266.67
2022-11-08T22:03:45.437Z,2266.67
2022-11-08T22:06:13.090Z,2266.67
2022-11-08T22:08:42.073Z,2266.67
2022-11-08T22:11:09.781Z,2266.67
2022-11-08T22:13:37.442Z,2266.67
2022-11-08T22:16:05.811Z,2266.67
2022-11-08T22:19:03.113Z,2266.67
2022-11-08T22:21:39.814Z,2266.67
2022-11-08T22:24:11.179Z,2266.67
2022-11-08T22:26:38.905Z,2266.67
2022-11-08T22:29:06.941Z,2266.67
2022-11-08T22:31:34.777Z,2266.67
2022-11-08T22:34:02.592Z,2266.67
2022-11-08T22:36:30.233Z,2266.67
2022-11-08T22:38:58.074Z,2266.67
2022-11-08T22:41:27.118Z,2266.67
2022-11-08T22:43:55.084Z,2266.67
2022-11-08T22:46:23.006Z,2266.67
2022-11-08T22:48:50.879Z,2266.67
2022-11-08T22:51:18.644Z,2266.67
2022-11-08T22:53:46.273Z,2266.67
2022-11-08T22:56:14.062Z,2266.67
2022-11-08T22:58:43.230Z,2266.67
2022-11-08T23:01:12.576Z,2266.67
2022-11-08T23:03:41.529Z,2266.67
2022-11-08T23:06:10.316Z,2266.67
2022-11-08T23:08:37.975Z,2266.67
2022-11-08T23:11:19.642Z,2266.67
2022-11-08T23:14:05.909Z,2266.67
2022-11-08T23:16:37.073Z,2266.67
2022-11-08T23:19:24.710Z,2266.67
2022-11-08T23:22:10.000Z,2266.67
2022-11-08T23:24:37.702Z,2266.67
2022-11-08T23:27:23.339Z,2266.67
2022-11-08T23:30:10.006Z,2266.67
2022-11-08T23:32:37.785Z,2266.67
2022-11-08T23:35:05.990Z,2266.67
2022-11-08T23:37:33.661Z,2266.67
2022-11-08T23:40:18.962Z,2266.67
2022-11-08T23:43:04.420Z,2266.67
2022-11-08T23:45:33.438Z,2266.67
2022-11-08T23:48:01.368Z,2266.67
2022-11-08T23:50:29.011Z,2266.67
2022-11-08T23:52:56.629Z,2266.67
2022-11-08T23:55:24.348Z,2266.67
2022-11-08T23:57:52.039Z,2266.67
